Flight Track Log - Related Links

Times and Time Zones

All times are in EDT time to prevent confusion due to time zone crossing. See the VOZ1486 flight status page for this flight to view local times or setup timezone preferences in your user account.

Time Position Orientation Groundspeed Altitude Reporting Facility
EDT Latitude Longitude Course Direction KTS MPH feet Rate Location/Type
Wed 02:42:52 AM -18.0012 122.1930 203° Southwest 16,500  Level Aus ATC (Calculated)
Wed 02:43:00 AM -18.1975 122.1235 202° Southwest  Level FlightAware Approximate
Wed 02:43:33 AM -18.0529 122.1582 203° Southwest 16,500  Level Aus ATC (Calculated)
Wed 02:45:00 AM -18.2045 122.0941 202° Southwest  Level FlightAware Approximate
Wed 02:45:26 AM -18.2065 122.0567 202° Southwest 16,500  Level Aus ATC (Calculated)
Wed 02:46:01 AM -18.2077 122.0539 202° Southwest 16,500 669 Level Aus ATC (Calculated)
Wed 02:46:31 AM -18.2585 122.0209 202° Southwest 16,500 683 Level Aus ATC (Calculated)
Wed 02:47:02 AM -18.3105 121.9851 202° Southwest 16,500 695 Level Aus ATC (Calculated)
Wed 02:48:26 AM -18.3625 121.9493 201° Southwest 38,000 708 Climbing Aus ATC (Calculated)
Wed 02:49:41 AM -18.5444 121.8747 201° Southwest 38,000 -77 Level Aus ATC (Calculated)
Wed 02:50:00 AM -18.5271 121.8818 201° Southwest  Level FlightAware Approximate
Wed 02:51:00 AM -18.6827 121.8179 201° Southwest  Level FlightAware Approximate
Wed 02:52:00 AM -18.7878 121.7746 201° Southwest  Level FlightAware Approximate
Wed 02:52:10 AM -18.8171 121.7625 201° Southwest 38,000  Level Aus ATC (Calculated)
Wed 02:52:55 AM -18.9080 121.7251 201° Southwest 38,000 -89 Level Aus ATC (Calculated)
Wed 02:54:00 AM -19.0218 121.6781 201° Southwest  Level FlightAware Approximate
Wed 02:55:00 AM -19.1268 121.6347 201° Southwest  Level FlightAware Approximate
Wed 02:55:10 AM -19.0898 121.6500 201° Southwest 38,000  Level Aus ATC (Calculated)
Wed 02:56:40 AM -19.2715 121.5747 201° Southwest 38,000 -103 Level Aus ATC (Calculated)
Wed 02:56:55 AM -19.2715 121.5747 201° Southwest 38,000 -112 Level Aus ATC (Calculated)
Wed 02:58:00 AM -19.3852 121.5276 201° Southwest  Level FlightAware Approximate
Wed 02:59:00 AM -19.4902 121.4839 201° Southwest  Level FlightAware Approximate
Wed 02:59:02 AM -19.5440 121.4616 202° Southwest 38,000  Level Aus ATC (Calculated)
Wed 03:01:00 AM -19.7489 121.3762 201° Southwest  Level FlightAware Approximate
Wed 03:01:35 AM -19.8164 121.3480 202° Southwest 38,000  Level Aus ATC (Calculated)
Wed 03:02:02 AM -19.8164 121.3480 202° Southwest 38,000 -154 Level Aus ATC (Calculated)
Wed 03:03:25 AM -19.9857 121.2773 202° Southwest 38,000 -160 Level Aus ATC (Calculated)
Wed 03:04:00 AM -20.0213 121.2624 201° Southwest  Level FlightAware Approximate
Wed 03:04:20 AM -20.0986 121.2300 202° Southwest 38,000  Level Aus ATC (Calculated)
Wed 03:06:00 AM -20.2722 121.1572 201° Southwest  Level FlightAware Approximate
Wed 03:07:00 AM -20.3763 121.1134 202° Southwest  Level FlightAware Approximate
Wed 03:08:00 AM -20.4804 121.0696 202° Southwest  Level FlightAware Approximate
Wed 03:09:00 AM -20.5845 121.0257 202° Southwest  Level FlightAware Approximate
Wed 03:09:15 AM -20.6627 120.9926 202° Southwest 38,000  Level Aus ATC (Calculated)
Wed 03:11:00 AM -20.8448 120.9156 202° Southwest  Level FlightAware Approximate
Wed 03:12:00 AM -20.9489 120.8715 202° Southwest  Level FlightAware Approximate
Wed 03:13:00 AM -21.0529 120.8273 202° Southwest  Level FlightAware Approximate
Wed 03:14:00 AM -21.1569 120.7831 202° Southwest  Level FlightAware Approximate
Wed 03:14:34 AM -21.1005 120.8023 202° Southwest 443 510 36,000  Level Aus ATC (RADAR)
Wed 03:15:28 AM -21.2073 120.7572 201° Southwest 446 513 36,000  Level Aus ATC (RADAR)
Wed 03:15:34 AM -21.2250 120.7540 201° Southwest 451 519 36,000  Level FlightAware ADS-B
Wed 03:15:58 AM -21.2671 120.7337 200° South 449 517 36,000  Level Aus ATC (RADAR)
Wed 03:16:18 AM -21.3062 120.7177 201° Southwest 448 516 36,000  Level Aus ATC (RADAR)
Wed 03:16:25 AM -21.3110 120.7180 201° Southwest 449 517 36,000  Level FlightAware ADS-B
Wed 03:17:20 AM -21.4270 120.6680 202° Southwest 451 519 36,000  Level FlightAware ADS-B
Wed 03:17:52 AM -21.4920 120.6400 202° Southwest 450 518 36,000  Level FlightAware ADS-B
Wed 03:18:23 AM -21.5476 120.6143 202° Southwest 447 514 36,000  Level Aus ATC (RADAR)
Wed 03:18:42 AM -21.5810 120.6030 202° Southwest 449 517 36,000  Level FlightAware ADS-B
Wed 03:19:16 AM -21.6510 120.5720 202° Southwest 451 519 36,000  Level FlightAware ADS-B
Wed 03:19:52 AM -21.7250 120.5400 202° Southwest 450 518 36,000  Level FlightAware ADS-B
Wed 03:20:34 AM -21.7970 120.5100 201° Southwest 450 518 36,000  Level FlightAware ADS-B
Wed 03:21:10 AM -21.8570 120.4850 201° Southwest 450 518 36,000 1,217 Level FlightAware ADS-B
Wed 03:21:43 AM -21.9324 120.4485 201° Southwest 442 509 37,400  Climbing Aus ATC (RADAR)
Wed 03:21:46 AM -21.9160 120.4610 201° Southwest 450 518 36,000 686 Descending FlightAware ADS-B
Wed 03:22:18 AM -21.9982 120.4199 201° Southwest 438 504 37,800  Climbing Aus ATC (RADAR)
Wed 03:22:22 AM -21.9760 120.4360 201° Southwest 450 518 36,000 333 Descending FlightAware ADS-B
Wed 03:22:54 AM -22.0710 120.3920 203° Southwest 440 506 38,000 1,775 Climbing FlightAware ADS-B
Wed 03:23:33 AM -22.1421 120.3599 203° Southwest 439 505 38,100  Climbing Aus ATC (RADAR)
Wed 03:23:46 AM -22.1630 120.3530 203° Southwest 441 507 38,000  Descending FlightAware ADS-B
Wed 03:24:18 AM -22.2265 120.3230 203° Southwest 437 503 38,100  Climbing Aus ATC (RADAR)
Wed 03:24:34 AM -22.2410 120.3200 203° Southwest 441 507 38,000 -111 Descending FlightAware ADS-B
Wed 03:25:12 AM -22.3340 120.2780 203° Southwest 439 505 38,000  Level FlightAware ADS-B
Wed 03:25:46 AM -22.3900 120.2540 202° Southwest 440 506 38,000  Level FlightAware ADS-B
Wed 03:26:22 AM -22.4480 120.2280 203° Southwest 440 506 38,000  Level FlightAware ADS-B
Wed 03:26:58 AM -22.5050 120.2030 202° Southwest 440 506 38,000  Level FlightAware ADS-B
Wed 03:27:34 AM -22.5630 120.1780 202° Southwest 440 506 38,000 87 Level FlightAware ADS-B
Wed 03:28:07 AM -22.6563 120.1356 202° Southwest 430 495 38,100  Climbing Aus ATC (RADAR)
Wed 03:28:11 AM -22.6220 120.1520 202° Southwest 440 506 38,000  Descending FlightAware ADS-B
Wed 03:28:42 AM -22.7221 120.1074 202° Southwest 431 496 38,100  Climbing Aus ATC (RADAR)
Wed 03:28:47 AM -22.6800 120.1270 202° Southwest 440 506 38,000 -146 Descending FlightAware ADS-B
Wed 03:29:23 AM -22.7380 120.1010 202° Southwest 440 506 38,000  Level FlightAware ADS-B
Wed 03:29:59 AM -22.7960 120.0760 202° Southwest 440 506 38,000  Level FlightAware ADS-B
Wed 03:30:35 AM -22.8530 120.0510 202° Southwest 440 506 38,000  Level FlightAware ADS-B
Wed 03:31:11 AM -22.9110 120.0250 202° Southwest 440 506 38,000  Level FlightAware ADS-B
Wed 03:31:47 AM -22.9690 120.0000 202° Southwest 440 506 38,000  Level FlightAware ADS-B
Wed 03:32:23 AM -23.0270 119.9750 202° Southwest 440 506 38,000 150 Level FlightAware ADS-B
Wed 03:32:27 AM -23.1420 119.9247 202° Southwest 429 494 38,100  Climbing Aus ATC (RADAR)
Wed 03:32:59 AM -23.0840 119.9490 203° Southwest 440 506 38,000 -88 Descending FlightAware ADS-B
Wed 03:33:35 AM -23.1420 119.9240 202° Southwest 440 506 38,000  Level FlightAware ADS-B
Wed 03:34:11 AM -23.2000 119.8990 202° Southwest 440 506 38,000  Level FlightAware ADS-B
Wed 03:34:47 AM -23.2580 119.8730 202° Southwest 440 506 38,000 67 Level FlightAware ADS-B
Wed 03:35:41 AM -23.5072 119.7668 202° Southwest 436 502 38,100 55 Climbing Aus ATC (RADAR)
Wed 03:36:36 AM -23.6063 119.7249 201° Southwest 415 478 38,100  Level Aus ATC (RADAR)
Wed 03:37:01 AM -23.6576 119.7045 200° South 438 504 38,100  Level Aus ATC (RADAR)
Wed 03:37:41 AM -23.7332 119.6728 201° Southwest 441 507 38,100  Level Aus ATC (RADAR)
Wed 03:38:21 AM -23.8071 119.6418 201° Southwest 436 502 38,100  Level Aus ATC (RADAR)
Wed 03:38:56 AM -23.8718 119.6147 201° Southwest 431 496 38,100  Level Aus ATC (RADAR)
Wed 03:39:46 AM -23.9651 119.5756 201° Southwest 430 495 38,100  Level Aus ATC (RADAR)
Wed 03:40:11 AM -24.0112 119.5564 201° Southwest 429 494 38,100  Level Aus ATC (RADAR)
Wed 03:40:46 AM -24.0756 119.5294 201° Southwest 426 490 38,100  Level Aus ATC (RADAR)
Wed 03:41:56 AM -24.2059 119.4742 201° Southwest 431 496 38,100  Level Aus ATC (RADAR)
Wed 03:42:20 AM -24.2502 119.4562 200° South 419 482 38,100  Level Aus ATC (RADAR)
Wed 03:42:55 AM -24.3154 119.4284 201° Southwest 426 490 38,100  Level Aus ATC (RADAR)
Wed 03:43:30 AM -24.3807 119.4008 201° Southwest 430 495 38,100  Level Aus ATC (RADAR)
Wed 03:44:10 AM -24.4543 119.3701 201° Southwest 427 491 38,100  Level Aus ATC (RADAR)
Wed 03:44:55 AM -24.5383 119.3345 201° Southwest 429 494 38,100  Level Aus ATC (RADAR)
Wed 03:45:20 AM -24.5840 119.3156 201° Southwest 425 489 38,100  Level Aus ATC (RADAR)
Wed 03:45:55 AM -24.6490 119.2879 201° Southwest 428 493 38,100  Level Aus ATC (RADAR)
Wed 03:47:05 AM -24.7787 119.2325 201° Southwest 432 497 38,100  Level Aus ATC (RADAR)
Wed 03:47:20 AM -24.8059 119.2214 200° South 429 494 38,100  Level Aus ATC (RADAR)
Wed 03:47:55 AM -24.8710 119.1934 201° Southwest 429 494 38,100  Level Aus ATC (RADAR)
Wed 03:48:50 AM -24.9732 119.1498 201° Southwest 431 496 38,100  Level Aus ATC (RADAR)
Wed 03:49:25 AM -25.0371 119.1235 200° South 427 491 38,100  Level Aus ATC (RADAR)
Wed 03:50:15 AM -25.1305 119.0829 201° Southwest 430 495 38,100  Level Aus ATC (RADAR)
Wed 03:50:50 AM -25.1953 119.0548 201° Southwest 430 495 38,100  Level Aus ATC (RADAR)
Wed 03:51:50 AM -25.3061 119.0071 201° Southwest 430 495 38,100  Level Aus ATC (RADAR)
Wed 03:52:10 AM -25.3428 118.9914 201° Southwest 430 495 38,100  Level Aus ATC (RADAR)
Wed 03:52:44 AM -25.4075 118.9622 202° Southwest 431 496 38,100  Level Aus ATC (RADAR)
Wed 03:53:29 AM -25.4894 118.9287 200° South 423 487 38,100  Level Aus ATC (RADAR)
Wed 03:54:04 AM -25.5534 118.9016 201° Southwest 424 488 38,100  Level Aus ATC (RADAR)
Wed 03:54:49 AM -25.6358 118.8649 202° Southwest 424 488 38,100  Level Aus ATC (RADAR)
Wed 03:55:19 AM -25.6895 118.8421 201° Southwest 419 482 38,100  Level Aus ATC (RADAR)
Wed 03:55:54 AM -25.7517 118.8159 201° Southwest 413 475 38,100  Level Aus ATC (RADAR)
Wed 03:56:59 AM -25.8685 118.7647 201° Southwest 417 480 38,100  Level Aus ATC (RADAR)
Wed 03:57:24 AM -25.9129 118.7462 201° Southwest 414 476 38,100  Level Aus ATC (RADAR)
Wed 03:57:59 AM -25.9753 118.7190 201° Southwest 413 475 38,100  Level Aus ATC (RADAR)
Wed 03:58:49 AM -26.0649 118.6797 201° Southwest 416 479 38,100  Level Aus ATC (RADAR)
Wed 03:59:24 AM -26.1279 118.6521 201° Southwest 418 481 38,100  Level Aus ATC (RADAR)
Wed 04:00:17 AM -26.2171 118.6139 201° Southwest 414 476 38,100  Level Aus ATC (RADAR)
Wed 04:00:43 AM -26.2709 118.5907 201° Southwest 415 478 38,100  Level Aus ATC (RADAR)
Wed 04:01:43 AM -26.3787 118.5432 202° Southwest 417 480 38,100  Level Aus ATC (RADAR)
Wed 04:02:13 AM -26.4312 118.5242 198° South 407 468 38,100  Level Aus ATC (RADAR)
Wed 04:02:28 AM -26.4575 118.5139 199° South 404 465 38,100  Level Aus ATC (RADAR)
Wed 04:03:08 AM -26.5305 118.4733 206° Southwest 428 493 38,100  Level Aus ATC (RADAR)
Wed 04:03:43 AM -26.5949 118.4402 205° Southwest 435 501 38,100  Level Aus ATC (RADAR)
Wed 04:04:13 AM -26.6471 118.4245 195° South 405 466 38,100  Level Aus ATC (RADAR)
Wed 04:07:23 AM -27.0437 118.2483 202° Southwest 38,000  Descending Aus ATC (Calculated)
Wed 04:08:43 AM -27.2072 118.1753 202° Southwest 38,000 11 Level Aus ATC (Calculated)
Wed 04:09:00 AM -27.2239 118.1679 202° Southwest  Level FlightAware Approximate
Wed 04:10:00 AM -27.3502 118.1113 202° Southwest  Level FlightAware Approximate
Wed 04:10:08 AM -27.3843 118.0960 202° Southwest 38,000  Level Aus ATC (Calculated)
Wed 04:12:00 AM -27.5923 118.0025 202° Southwest  Level FlightAware Approximate
Wed 04:13:00 AM -27.7036 117.9523 202° Southwest  Level FlightAware Approximate
Wed 04:13:33 AM -27.7826 117.9166 203° Southwest 38,000  Level Aus ATC (Calculated)
Wed 04:13:43 AM -27.7826 117.9166 203° Southwest 38,000 30 Level Aus ATC (Calculated)
Wed 04:15:00 AM -27.9255 117.8519 202° Southwest  Level FlightAware Approximate
Wed 04:16:00 AM -27.8142 117.9023 22° Northeast  Level FlightAware Approximate
Wed 04:16:52 AM -27.9895 117.8149 22° Northeast 411 473 38,100  Level Aus ATC (RADAR)
Wed 04:17:07 AM -28.0155 117.8021 203° Southwest 410 472 38,100  Level Aus ATC (RADAR)
Wed 04:17:47 AM -28.0853 117.7698 202° Southwest 408 470 38,100  Level Aus ATC (RADAR)
Wed 04:18:22 AM -28.1473 117.7440 200° South 408 470 38,100  Level Aus ATC (RADAR)
Wed 04:19:17 AM -28.2418 117.6996 203° Southwest 402 463 38,100  Level Aus ATC (RADAR)
Wed 04:19:32 AM -28.2669 117.6858 206° Southwest 400 460 38,100  Level Aus ATC (RADAR)
Wed 04:20:07 AM -28.3272 117.6541 205° Southwest 407 468 38,100  Level Aus ATC (RADAR)
Wed 04:20:56 AM -28.4151 117.6137 202° Southwest 411 473 38,100  Level Aus ATC (RADAR)
Wed 04:21:11 AM -28.4414 117.6024 201° Southwest 413 475 38,100  Level Aus ATC (RADAR)
Wed 04:22:21 AM -28.5674 117.5495 200° South 408 470 38,100  Level Aus ATC (RADAR)
Wed 04:22:46 AM -28.6116 117.5286 202° Southwest 410 472 38,100 -133 Level Aus ATC (RADAR)
Wed 04:23:06 AM -28.6370 117.5280 202° Southwest 414 476 38,000 -102 Descending FlightAware ADS-B
Wed 04:23:45 AM -28.6960 117.5010 202° Southwest 414 476 38,000  Level FlightAware ADS-B
Wed 04:24:22 AM -28.7770 117.4640 202° Southwest 403 464 38,000  Level FlightAware ADS-B
Wed 04:25:07 AM -28.8600 117.4260 202° Southwest 403 464 38,000  Level FlightAware ADS-B
Wed 04:25:45 AM -28.9160 117.4000 202° Southwest 403 464 38,000  Level FlightAware ADS-B
Wed 04:26:19 AM -28.9830 117.3690 202° Southwest 402 463 38,000  Level FlightAware ADS-B
Wed 04:26:53 AM -29.0390 117.3430 202° Southwest 401 461 38,000  Level FlightAware ADS-B
Wed 04:27:29 AM -29.0910 117.3190 202° Southwest 401 461 38,000  Level FlightAware ADS-B
Wed 04:27:58 AM -29.1620 117.2860 202° Southwest 403 464 38,000 375 Level FlightAware ADS-B
Wed 04:28:01 AM -29.1673 117.2750 202° Southwest 412 474 38,200 316 Climbing Aus ATC (RADAR)
Wed 04:28:36 AM -29.2290 117.2478 202° Southwest 407 468 38,200 -273 Level Aus ATC (RADAR)
Wed 04:28:45 AM -29.2440 117.2480 202° Southwest 403 464 38,000  Descending FlightAware ADS-B
Wed 04:29:25 AM -29.3174 117.2083 202° Southwest 406 467 38,200  Climbing Aus ATC (RADAR)
Wed 04:29:46 AM -29.3450 117.2010 202° Southwest 402 463 38,000 -197 Descending FlightAware ADS-B
Wed 04:30:26 AM -29.4090 117.1710 202° Southwest 402 463 38,000  Level FlightAware ADS-B
Wed 04:30:55 AM -29.4690 117.1440 201° Southwest 400 460 38,000  Level FlightAware ADS-B
Wed 04:31:33 AM -29.5380 117.1110 203° Southwest 398 458 38,000  Level FlightAware ADS-B
Wed 04:32:17 AM -29.6100 117.0780 202° Southwest 404 465 38,000  Level FlightAware ADS-B
Wed 04:32:43 AM -29.6610 117.0540 202° Southwest 404 465 38,000  Level FlightAware ADS-B
Wed 04:33:21 AM -29.7270 117.0230 202° Southwest 404 465 38,000  Level FlightAware ADS-B
Wed 04:34:06 AM -29.7880 116.9950 202° Southwest 404 465 38,000  Level FlightAware ADS-B
Wed 04:34:43 AM -29.8530 116.9640 202° Southwest 403 464 38,000  Level FlightAware ADS-B
Wed 04:35:20 AM -29.9070 116.9390 202° Southwest 403 464 38,000  Level FlightAware ADS-B
Wed 04:35:50 AM -29.9830 116.9030 202° Southwest 400 460 38,000  Level FlightAware ADS-B
Wed 04:36:28 AM -30.0380 116.8770 202° Southwest 400 460 38,000 -171 Level FlightAware ADS-B
Wed 04:37:00 AM -30.0870 116.8530 203° Southwest 402 463 37,800 -2,308 Descending FlightAware ADS-B
Wed 04:37:33 AM -30.1600 116.8190 202° Southwest 386 444 35,500 -1,852 Descending FlightAware ADS-B
Wed 04:38:21 AM -30.2220 116.7880 203° Southwest 384 442 35,300 -1,953 Descending FlightAware ADS-B
Wed 04:38:59 AM -30.2920 116.7560 202° Southwest 369 425 32,700 -2,026 Descending FlightAware ADS-B
Wed 04:39:38 AM -30.3450 116.7320 201° Southwest 369 425 32,700 -1,379 Level FlightAware ADS-B
Wed 04:40:26 AM -30.4250 116.6920 203° Southwest 352 405 30,700 -1,429 Descending FlightAware ADS-B
Wed 04:41:02 AM -30.4710 116.6700 202° Southwest 352 405 30,700  Level FlightAware ADS-B
Wed 04:41:38 AM -30.5170 116.6470 203° Southwest 352 405 30,700 -3,583 Level FlightAware ADS-B
Wed 04:42:14 AM -30.6084 116.6091 203° Southwest 355 409 26,400  Descending Aus ATC (RADAR)
Wed 04:42:14 AM -30.5630 116.6240 203° Southwest 352 405 30,700 -1,833 Climbing FlightAware ADS-B
Wed 04:42:50 AM -30.6570 116.5920 196° South 359 413 25,300 -5,657 Descending FlightAware ADS-B
Wed 04:43:24 AM -30.7150 116.5690 199° South 361 415 24,100 -1,969 Descending FlightAware ADS-B
Wed 04:43:54 AM -30.7667 116.5470 199° South 363 418 23,200 -2,000 Descending Aus ATC (RADAR)
Wed 04:44:12 AM -30.7920 116.5390 199° South 359 413 22,500 -2,000 Descending FlightAware ADS-B
Wed 04:44:48 AM -30.8470 116.5180 198° South 340 391 21,400 -1,775 Descending FlightAware ADS-B
Wed 04:45:23 AM -30.9000 116.4970 199° South 336 387 20,400 -1,726 Descending FlightAware ADS-B
Wed 04:46:01 AM -30.9550 116.4750 199° South 326 375 19,300 -857 Descending FlightAware ADS-B
Wed 04:46:40 AM -31.0020 116.4570 198° South 326 375 19,300 -1,615 Level FlightAware ADS-B
Wed 04:47:19 AM -31.0667 116.4304 198° South 312 359 17,200 -2,264 Descending Aus ATC (RADAR)
Wed 04:47:33 AM -31.0800 116.4270 198° South 310 357 17,300 -1,200 Climbing FlightAware ADS-B
Wed 04:47:39 AM -31.0780 116.4270 360° North 221 254 16,800 -2,400 Descending FlightAware ADS-B
Wed 04:48:23 AM -31.1537 116.3965 360° North 302 348 15,300 -1,765 Descending Aus ATC (RADAR)
Wed 04:48:30 AM -31.1460 116.4000 360° North 307 353 15,300 -1,636 Level FlightAware ADS-B
Wed 04:49:18 AM -31.2180 116.3720 198° South 293 337 13,800 -1,875 Descending FlightAware ADS-B
Wed 04:49:50 AM -31.2680 116.3520 199° South 290 334 12,800 -1,676 Descending FlightAware ADS-B
Wed 04:50:26 AM -31.3110 116.3350 199° South 286 329 11,900 -1,606 Descending FlightAware ADS-B
Wed 04:51:01 AM -31.3600 116.3160 198° South 291 335 10,900 -1,652 Descending FlightAware ADS-B
Wed 04:51:35 AM -31.4040 116.2990 198° South 292 336 10,000 -1,527 Descending FlightAware ADS-B
Wed 04:51:56 AM -31.4290 116.2860 204° Southwest 286 329 9,500 -1,463 Descending FlightAware ADS-B
Wed 04:52:16 AM -31.4520 116.2710 209° Southwest 273 314 9,000 -1,412 Descending FlightAware ADS-B
Wed 04:52:30 AM -31.4680 116.2610 208° Southwest 279 321 8,700 -1,412 Descending FlightAware ADS-B
Wed 04:52:50 AM -31.4910 116.2460 209° Southwest 276 318 8,200 -1,435 Descending FlightAware ADS-B
Wed 04:53:16 AM -31.5190 116.2280 209° Southwest 264 304 7,600 -1,459 Descending FlightAware ADS-B
Wed 04:53:27 AM -31.5300 116.2210 208° Southwest 262 302 7,300 -1,448 Descending FlightAware ADS-B
Wed 04:53:45 AM -31.5510 116.2070 210° Southwest 261 300 6,900 -1,067 Descending FlightAware ADS-B
Wed 04:54:12 AM -31.5680 116.1970 207° Southwest 269 310 6,500 -1,000 Descending FlightAware ADS-B
Wed 04:54:21 AM -31.5790 116.1890 212° Southwest 269 310 6,300 -1,500 Descending FlightAware ADS-B
Wed 04:54:48 AM -31.6080 116.1710 208° Southwest 264 304 5,600 -1,364 Descending FlightAware ADS-B
Wed 04:55:05 AM -31.6270 116.1590 208° Southwest 263 303 5,300 -894 Descending FlightAware ADS-B
Wed 04:55:35 AM -31.6570 116.1400 208° Southwest 245 282 4,900 -941 Descending FlightAware ADS-B
Wed 04:55:56 AM -31.6760 116.1280 208° Southwest 242 278 4,500 -1,650 Descending FlightAware ADS-B
Wed 04:56:15 AM -31.7050 116.1090 209° Southwest 242 278 3,800 -1,538 Descending FlightAware ADS-B
Wed 04:56:35 AM -31.7260 116.0960 208° Southwest 226 260 3,500 -833 Descending FlightAware ADS-B
Wed 04:56:51 AM -31.7400 116.0860 211° Southwest 225 259 3,300 -581 Descending FlightAware ADS-B
Wed 04:57:06 AM -31.7530 116.0770 210° Southwest 213 245 3,200 -414 Descending FlightAware ADS-B
Wed 04:57:20 AM -31.7620 116.0640 231° Southwest 198 228 3,100 -514 Descending FlightAware ADS-B
Wed 04:57:41 AM -31.7730 116.0470 233° Southwest 193 222 2,900 -585 Descending FlightAware ADS-B
Wed 04:58:01 AM -31.7840 116.0300 233° Southwest 184 212 2,700 -750 Descending FlightAware ADS-B
Wed 04:58:21 AM -31.7940 116.0140 234° Southwest 164 189 2,400 -621 Descending FlightAware ADS-B
Wed 04:58:30 AM -31.7990 116.0090 220° Southwest 162 186 2,400  Level FlightAware ADS-B
Wed 04:58:35 AM -31.8020 116.0060 220° Southwest 154 177 2,400 -600 Level FlightAware ADS-B
Wed 04:58:40 AM -31.8050 116.0040 210° Southwest 160 184 2,300 -800 Descending FlightAware ADS-B
Wed 04:58:50 AM -31.8130 116.0020 192° South 161 185 2,200 -581 Descending FlightAware ADS-B
Wed 04:59:11 AM -31.8280 115.9980 193° South 152 175 2,000 -750 Descending FlightAware ADS-B
Wed 04:59:30 AM -31.8420 115.9940 194° South 152 175 1,700 -923 Descending FlightAware ADS-B
Wed 04:59:50 AM -31.8540 115.9900 196° South 149 171 1,400 -750 Descending FlightAware ADS-B
Wed 05:00:10 AM -31.8670 115.9860 195° South 138 159 1,200 -783 Descending FlightAware ADS-B
Wed 05:00:36 AM -31.8830 115.9820 192° South 131 151 800 -800 Descending FlightAware ADS-B
Wed 05:00:55 AM -31.8950 115.9780 196° South 131 151 600 -585 Descending FlightAware ADS-B
Wed 05:01:17 AM -31.9050 115.9750 194° South 131 151 400 -545 Descending FlightAware ADS-B
Wed 05:01:51 AM -31.9270 115.9690 193° South 130 150 -706 Descending FlightAware ADS-B
Wed 05:02:23 AM -31.9400 115.9650 195° South 82 94  Level FlightAware ADS-B
Wed 05:02:50 AM -31.9480 115.9630 192° South 82 94  Level FlightAware ADS-B

Login

Don't have an account? Register now (free) for customized features, flight alerts, and more!